| time (UTC) | temp C | wind direction | speed KPH | gust KPH | rain 1hr cm | rain 24hr cm | rain mn cm | humidity % | barometer mb |
| 20260506061558 | 5 | 219 | 0.0 | 0.0 | 0.00 | 1.85 | 1.80 | 90 | 1014.4 |
| 20260506044550 | 6 | 226 | 0.0 | 0.0 | 0.00 | 1.96 | 1.80 | 88 | 1014.2 |
| 20260506043043 | 6 | 226 | 0.0 | 0.0 | 0.00 | 1.96 | 1.80 | 89 | 1014.0 |
| 20260506041541 | 5 | 226 | 0.0 | 0.0 | 0.00 | 1.96 | 1.80 | 89 | 1013.8 |
| 20260506040043 | 6 | 226 | 0.0 | 0.0 | 0.00 | 2.03 | 1.80 | 88 | 1013.5 |
| 20260506034542 | 6 | 226 | 0.0 | 0.0 | 0.00 | 2.03 | 1.80 | 88 | 1013.1 |
| 20260506033043 | 6 | 226 | 0.0 | 0.0 | 0.00 | 2.03 | 1.80 | 88 | 1012.9 |
| 20260506031547 | 6 | 226 | 0.0 | 0.0 | 0.00 | 2.03 | 1.80 | 89 | 1012.9 |
| 20260506030041 | 6 | 227 | 0.0 | 0.0 | 0.00 | 2.24 | 1.80 | 89 | 1012.7 |
| 20260506024544 | 6 | 227 | 0.0 | 0.0 | 0.00 | 2.24 | 1.80 | 89 | 1012.5 |
| 20260506023036 | 6 | 226 | 0.0 | 0.0 | 0.00 | 2.24 | 1.80 | 89 | 1012.6 |
| 20260506021542 | 7 | 227 | 0.0 | 0.0 | 0.00 | 2.24 | 1.80 | 88 | 1012.5 |
| 20260506020034 | 7 | 226 | 0.0 | 0.0 | 0.00 | 2.26 | 1.80 | 88 | 1012.5 |
| 20260506014533 | 7 | 226 | 0.0 | 0.0 | 0.00 | 2.26 | 1.80 | 87 | 1012.4 |
| 20260506013033 | 8 | 226 | 0.0 | 0.0 | 0.00 | 2.26 | 1.80 | 85 | 1012.1 |
| 20260506011536 | 8 | 226 | 0.0 | 0.0 | 0.00 | 2.26 | 1.80 | 84 | 1012.0 |
| 20260506010033 | 9 | 227 | 0.0 | 0.0 | 0.00 | 2.26 | 1.80 | 83 | 1011.8 |
| 20260506004532 | 9 | 281 | 0.0 | 1.6 | 0.00 | 2.26 | 1.80 | 79 | 1011.9 |
| 20260506003030 | 10 | 225 | 0.0 | 0.0 | 0.00 | 2.26 | 1.80 | 79 | 1012.0 |
| 20260506001529 | 10 | 18 | 0.0 | 1.6 | 0.00 | 2.26 | 1.80 | 76 | 1012.2 |
| 20260506000038 | 10 | 232 | 1.6 | 6.4 | 0.00 | 2.51 | 1.80 | 79 | 1012.0 |
| 20260505234527 | 10 | 209 | 0.0 | 1.6 | 0.00 | 2.51 | 1.80 | 81 | 1012.1 |
| 20260505233027 | 10 | 260 | 0.0 | 0.0 | 0.00 | 2.51 | 1.80 | 80 | 1012.2 |
| 20260505231526 | 9 | 269 | 0.0 | 1.6 | 0.00 | 2.51 | 1.80 | 81 | 1012.3 |
| 20260505230031 | 9 | 281 | 0.0 | 3.2 | 0.00 | 2.62 | 1.80 | 79 | 1012.3 |
| 20260505224523 | 10 | 266 | 0.0 | 4.8 | 0.00 | 2.62 | 1.80 | 80 | 1012.2 |
| 20260505223030 | 10 | 218 | 0.0 | 3.2 | 0.00 | 2.62 | 1.80 | 78 | 1012.5 |
| 20260505221524 | 10 | 263 | 0.0 | 3.2 | 0.00 | 2.62 | 1.80 | 82 | 1012.4 |
| 20260505220020 | 10 | 232 | 0.0 | 6.4 | 0.00 | 2.62 | 1.80 | 78 | 1012.5 |
| 20260505214529 | 10 | 231 | 0.0 | 1.6 | 0.00 | 2.62 | 1.80 | 78 | 1012.7 |
| 20260505213019 | 10 | 222 | 0.0 | 1.6 | 0.05 | 2.62 | 1.80 | 78 | 1012.9 |
| 20260505211514 | 9 | 277 | 0.0 | 4.8 | 0.08 | 2.62 | 1.80 | 83 | 1013.1 |
| 20260505210013 | 8 | 206 | 0.0 | 1.6 | 0.13 | 2.72 | 1.80 | 85 | 1013.2 |
| 20260505204510 | 8 | 257 | 0.0 | 3.2 | 0.23 | 2.72 | 1.80 | 86 | 1013.1 |
| 20260505203009 | 7 | 246 | 0.0 | 1.6 | 0.28 | 2.67 | 1.75 | 86 | 1013.1 |
| 20260505201512 | 7 | 245 | 0.0 | 1.6 | 0.33 | 2.64 | 1.73 | 88 | 1013.2 |
| 20260505200008 | 8 | 195 | 0.0 | 4.8 | 0.36 | 2.90 | 1.68 | 87 | 1013.1 |
| 20260505194504 | 7 | 236 | 0.0 | 3.2 | 0.33 | 2.82 | 1.57 | 93 | 1013.3 |
| 20260505193100 | 6 | 281 | 0.0 | 1.6 | 0.36 | 2.74 | 1.50 | 93 | 1013.3 |
| 20260505191558 | 6 | 310 | 0.0 | 1.6 | 0.36 | 2.67 | 1.42 | 93 | 1013.4 |
| 20260505190055 | 5 | 181 | 0.0 | 3.2 | 0.33 | 2.57 | 1.32 | 93 | 1013.4 |
| 20260505184552 | 5 | 208 | 0.0 | 1.6 | 0.30 | 2.57 | 1.24 | 95 | 1013.4 |
| 20260505183102 | 4 | 233 | 0.0 | 0.0 | 0.28 | 2.46 | 1.14 | 95 | 1013.3 |
| 20260505181550 | 3 | 257 | 0.0 | 1.6 | 0.25 | 2.39 | 1.07 | 95 | 1013.1 |
| 20260505180048 | 3 | 224 | 0.0 | 0.0 | 0.23 | 2.31 | 0.99 | 95 | 1013.0 |
| 20260505174554 | 3 | 224 | 0.0 | 0.0 | 0.20 | 2.26 | 0.91 | 95 | 1012.8 |
| 20260505173038 | 3 | 222 | 0.0 | 0.0 | 0.23 | 2.21 | 0.86 | 95 | 1012.6 |
| 20260505171538 | 2 | 225 | 0.0 | 0.0 | 0.20 | 2.16 | 0.81 | 95 | 1012.5 |
| 20260505170035 | 2 | 229 | 0.0 | 0.0 | 0.20 | 2.16 | 0.76 | 95 | 1012.4 |
| 20260505164535 | 3 | 232 | 0.0 | 0.0 | 0.18 | 2.11 | 0.71 | 95 | 1012.2 |
| 20260505163033 | 2 | 165 | 0.0 | 0.0 | 0.15 | 2.03 | 0.64 | 95 | 1012.2 |
| 20260505161529 | 2 | 165 | 0.0 | 0.0 | 0.13 | 1.98 | 0.58 | 95 | 1012.0 |
| 20260505153024 | 2 | 165 | 0.0 | 0.0 | 0.10 | 1.91 | 0.48 | 96 | 1011.5 |
| 20260505151519 | 1 | 165 | 0.0 | 0.0 | 0.10 | 1.88 | 0.46 | 96 | 1011.3 |
| 20260505124511 | 0 | 165 | 0.0 | 0.0 | 0.03 | 1.73 | 0.30 | 96 | 1010.0 |
| 20260505123006 | 0 | 165 | 0.0 | 0.0 | 0.05 | 1.73 | 0.30 | 96 | 1009.9 |
| 20260505121507 | 0 | 165 | 0.0 | 0.0 | 0.05 | 1.73 | 0.30 | 96 | 1009.7 |
| 20260505120014 | 0 | 165 | 0.0 | 0.0 | 0.05 | 1.70 | 0.28 | 96 | 1009.5 |
| 20260505114504 | 0 | 165 | 0.0 | 0.0 | 0.05 | 1.70 | 0.28 | 96 | 1009.6 |
| 20260505113003 | 0 | 165 | 0.0 | 0.0 | 0.03 | 1.68 | 0.25 | 96 | 1009.4 |
| 20260505111503 | 0 | 165 | 0.0 | 0.0 | 0.05 | 1.68 | 0.25 | 96 | 1009.6 |
| 20260505101557 | 0 | 165 | 0.0 | 0.0 | 0.03 | 1.63 | 0.20 | 96 | 1009.9 |
| 20260505100055 | 0 | 165 | 0.0 | 0.0 | 0.03 | 1.63 | 0.20 | 96 | 1010.0 |
| 20260505094554 | 0 | 165 | 0.0 | 0.0 | 0.05 | 1.63 | 0.20 | 96 | 1010.2 |
| 20260505093059 | 0 | 165 | 0.0 | 0.0 | 0.05 | 1.60 | 0.18 | 96 | 1010.2 |
| 20260505091602 | 0 | 165 | 0.0 | 0.0 | 0.05 | 1.60 | 0.18 | 96 | 1010.3 |
| 20260505090052 | 0 | 165 | 0.0 | 0.0 | 0.08 | 1.60 | 0.18 | 96 | 1010.3 |
| 20260505084552 | 0 | 165 | 0.0 | 0.0 | 0.10 | 1.57 | 0.15 | 96 | 1010.4 |
| 20260505083056 | 0 | 165 | 0.0 | 0.0 | 0.08 | 1.55 | 0.13 | 96 | 1010.6 |
| 20260505081549 | 0 | 165 | 0.0 | 0.0 | 0.10 | 1.55 | 0.13 | 96 | 1010.7 |
| 20260505080050 | 0 | 165 | 0.0 | 0.0 | 0.10 | 1.52 | 0.10 | 96 | 1010.6 |
| 20260505074546 | 0 | 165 | 0.0 | 0.0 | 0.08 | 1.45 | 0.05 | 95 | 1011.2 |
| 20260505073052 | 0 | 165 | 0.0 | 0.0 | 0.10 | 1.45 | 0.05 | 95 | 1011.1 |
| 20260505071554 | 0 | 165 | 0.0 | 0.0 | 0.08 | 1.42 | 0.03 | 95 | 1010.8 |